createdAt,value
2018-06-20T00:00:14.293Z,16.80
2018-06-20T00:02:42.569Z,16.80
2018-06-20T00:05:10.856Z,16.70
2018-06-20T00:07:39.170Z,16.70
2018-06-20T00:10:07.525Z,16.70
2018-06-20T00:12:35.855Z,16.70
2018-06-20T00:15:04.196Z,16.70
2018-06-20T00:17:32.525Z,16.70
2018-06-20T00:20:00.805Z,16.70
2018-06-20T00:22:29.120Z,16.70
2018-06-20T00:24:57.405Z,16.70
2018-06-20T00:27:25.705Z,16.70
2018-06-20T00:29:53.992Z,16.70
2018-06-20T00:32:22.374Z,16.70
2018-06-20T00:34:50.679Z,16.70
2018-06-20T00:37:18.962Z,16.70
2018-06-20T00:39:47.267Z,16.70
2018-06-20T00:42:15.649Z,16.60
2018-06-20T00:44:43.933Z,16.50
2018-06-20T00:47:18.773Z,16.50
2018-06-20T00:49:47.066Z,16.40
2018-06-20T00:52:15.375Z,16.50
2018-06-20T00:54:43.689Z,16.50
2018-06-20T00:57:11.976Z,16.50
2018-06-20T00:59:40.230Z,16.40
2018-06-20T01:02:08.516Z,16.40
2018-06-20T01:04:36.801Z,16.40
2018-06-20T01:07:05.073Z,16.40
2018-06-20T01:09:33.339Z,16.30
2018-06-20T01:12:01.621Z,16.30
2018-06-20T01:14:29.931Z,16.40
2018-06-20T01:16:58.227Z,16.40
2018-06-20T01:19:26.506Z,16.40
2018-06-20T01:21:54.776Z,16.50
2018-06-20T01:24:23.089Z,16.40
2018-06-20T01:26:51.374Z,16.40
2018-06-20T01:29:19.680Z,16.40
2018-06-20T01:31:47.982Z,16.40
2018-06-20T01:34:16.914Z,16.40
2018-06-20T01:36:45.225Z,16.40
2018-06-20T01:39:13.550Z,16.40
2018-06-20T01:41:41.865Z,16.30
2018-06-20T01:44:10.165Z,16.30
2018-06-20T01:46:38.445Z,16.30
2018-06-20T01:49:06.745Z,16.30
2018-06-20T01:51:35.044Z,16.20
2018-06-20T01:54:03.338Z,16.20
2018-06-20T01:56:31.614Z,16.10
2018-06-20T01:58:59.913Z,16.10
2018-06-20T02:01:28.198Z,16.10
2018-06-20T02:03:56.495Z,16.10
2018-06-20T02:06:24.786Z,16.10
2018-06-20T02:08:57.981Z,16.10
2018-06-20T02:11:27.113Z,16.10
2018-06-20T02:13:55.433Z,16.00
2018-06-20T02:16:23.728Z,15.90
2018-06-20T02:18:52.062Z,15.90
2018-06-20T02:21:20.347Z,15.90
2018-06-20T02:23:48.639Z,15.70
2018-06-20T02:26:16.937Z,15.70
2018-06-20T02:28:45.241Z,15.60
2018-06-20T02:31:13.538Z,15.60
2018-06-20T02:33:41.834Z,15.70
2018-06-20T02:36:15.534Z,15.70
2018-06-20T02:38:43.846Z,15.70
2018-06-20T02:41:12.137Z,15.70
2018-06-20T02:43:40.422Z,15.70
2018-06-20T02:46:08.718Z,15.70
2018-06-20T02:48:36.981Z,15.60
2018-06-20T02:51:05.342Z,15.50
2018-06-20T02:53:34.229Z,15.50
2018-06-20T02:56:02.550Z,15.50
2018-06-20T02:58:30.896Z,15.50
2018-06-20T03:00:59.202Z,15.50
2018-06-20T03:03:27.473Z,15.60
2018-06-20T03:05:55.765Z,15.60
2018-06-20T03:08:24.065Z,15.70
2018-06-20T03:10:52.376Z,15.70
2018-06-20T03:13:20.678Z,15.60
2018-06-20T03:15:49.009Z,15.60
2018-06-20T03:18:17.533Z,15.60
2018-06-20T03:20:46.097Z,15.50
2018-06-20T03:23:14.590Z,15.50
2018-06-20T03:25:42.897Z,15.40
2018-06-20T03:28:11.173Z,15.50
2018-06-20T03:30:39.611Z,15.50
2018-06-20T03:33:07.937Z,15.40
2018-06-20T03:35:36.214Z,15.30
2018-06-20T03:38:04.519Z,15.20
2018-06-20T03:40:32.818Z,15.20
2018-06-20T03:43:01.115Z,15.40
2018-06-20T03:45:29.440Z,15.50
2018-06-20T03:47:57.722Z,15.60
2018-06-20T03:50:27.263Z,15.80
2018-06-20T03:52:55.580Z,15.90
2018-06-20T03:55:23.937Z,16.10
2018-06-20T03:57:52.227Z,16.40
2018-06-20T04:00:20.528Z,16.70
2018-06-20T04:02:48.796Z,16.90
2018-06-20T04:05:17.158Z,17.00
2018-06-20T04:07:45.493Z,17.30
2018-06-20T04:10:14.089Z,17.40
2018-06-20T04:12:42.621Z,17.60
2018-06-20T04:15:10.881Z,17.80
2018-06-20T04:17:39.204Z,18.10
2018-06-20T04:20:07.480Z,18.30
2018-06-20T04:25:05.613Z,18.80
2018-06-20T04:27:33.908Z,19.00
2018-06-20T04:30:02.183Z,19.20
2018-06-20T04:32:30.464Z,19.40
2018-06-20T04:34:58.811Z,19.50
2018-06-20T04:37:27.105Z,19.60
2018-06-20T04:39:55.385Z,19.70
2018-06-20T04:42:23.677Z,19.80
2018-06-20T04:44:51.981Z,19.80
2018-06-20T04:47:20.262Z,19.80
2018-06-20T04:49:49.475Z,19.80
2018-06-20T04:52:17.763Z,19.90
2018-06-20T04:54:46.070Z,19.90
2018-06-20T04:57:14.346Z,20.00
2018-06-20T04:59:42.631Z,20.00
2018-06-20T05:02:10.908Z,20.00
2018-06-20T05:04:39.195Z,20.00
2018-06-20T05:07:07.489Z,20.00
2018-06-20T05:09:35.793Z,20.10
2018-06-20T05:12:04.093Z,20.10
2018-06-20T05:14:32.374Z,20.20
2018-06-20T05:17:00.735Z,20.20
2018-06-20T05:19:29.025Z,20.20
2018-06-20T05:21:57.307Z,20.40
2018-06-20T05:24:25.954Z,20.60
2018-06-20T05:26:54.249Z,20.70
2018-06-20T05:29:22.550Z,20.90
2018-06-20T05:31:50.841Z,21.10
2018-06-20T05:34:19.144Z,21.20
2018-06-20T05:36:47.415Z,21.40
2018-06-20T05:39:15.690Z,21.50
2018-06-20T05:41:44.014Z,21.60
2018-06-20T05:44:12.260Z,21.70
2018-06-20T05:46:40.552Z,21.70
2018-06-20T05:49:08.896Z,21.70
2018-06-20T05:51:37.186Z,21.80
2018-06-20T05:54:05.603Z,21.80
2018-06-20T05:56:33.893Z,21.70
2018-06-20T05:59:02.184Z,21.60
2018-06-20T06:01:30.543Z,21.60
2018-06-20T06:03:58.835Z,21.60
2018-06-20T06:06:27.119Z,21.60
2018-06-20T06:08:55.418Z,21.60
2018-06-20T06:11:23.757Z,21.70
2018-06-20T06:13:52.047Z,21.80
2018-06-20T06:16:20.326Z,21.80
2018-06-20T06:18:51.609Z,21.90
2018-06-20T06:21:19.907Z,21.90
2018-06-20T06:23:48.201Z,22.00
2018-06-20T06:26:16.484Z,22.00
2018-06-20T06:28:44.873Z,22.10
2018-06-20T06:31:13.168Z,22.20
2018-06-20T06:33:41.461Z,22.20
2018-06-20T06:36:09.771Z,22.20
2018-06-20T06:38:38.172Z,22.20
2018-06-20T06:41:06.513Z,22.30
2018-06-20T06:43:34.803Z,22.50
2018-06-20T06:46:03.099Z,22.40
2018-06-20T06:48:31.385Z,22.50
2018-06-20T06:50:59.696Z,22.60
2018-06-20T06:53:27.976Z,22.60
2018-06-20T06:55:56.286Z,22.60
2018-06-20T06:58:24.528Z,22.60
2018-06-20T07:00:52.818Z,22.60
2018-06-20T07:03:21.124Z,22.70
2018-06-20T07:05:49.397Z,22.70
2018-06-20T07:08:17.673Z,22.80
2018-06-20T07:10:45.973Z,22.80
2018-06-20T07:13:14.279Z,22.80
2018-06-20T07:15:43.056Z,23.00
2018-06-20T07:18:11.354Z,23.10
2018-06-20T07:20:39.663Z,23.10
2018-06-20T07:23:07.954Z,23.10
2018-06-20T07:25:36.228Z,23.20
2018-06-20T07:28:04.549Z,23.30
2018-06-20T07:30:32.838Z,23.20
2018-06-20T07:33:01.095Z,23.10
2018-06-20T07:35:29.397Z,23.10
2018-06-20T07:37:57.724Z,23.10
2018-06-20T07:40:26.025Z,23.20
2018-06-20T07:42:54.313Z,23.20
2018-06-20T07:45:22.583Z,23.20
2018-06-20T07:47:50.956Z,23.10
2018-06-20T07:50:19.223Z,23.30
2018-06-20T07:52:47.536Z,23.40
2018-06-20T07:55:15.842Z,23.40
2018-06-20T07:57:44.218Z,23.50
2018-06-20T08:00:17.816Z,23.50
2018-06-20T08:03:02.693Z,23.50
2018-06-20T08:05:36.289Z,23.60
2018-06-20T08:08:09.842Z,23.70
2018-06-20T08:10:43.531Z,23.80
2018-06-20T08:13:17.284Z,23.70
2018-06-20T08:15:50.829Z,23.80
2018-06-20T08:18:24.557Z,23.90
2018-06-20T08:20:52.851Z,24.10
2018-06-20T08:23:21.151Z,24.00
2018-06-20T08:25:49.488Z,24.20
2018-06-20T08:28:17.765Z,24.20
2018-06-20T08:30:46.041Z,24.20
2018-06-20T08:33:14.509Z,24.20
2018-06-20T08:35:42.786Z,24.20
2018-06-20T08:38:11.086Z,24.30
2018-06-20T08:40:39.406Z,24.40
2018-06-20T08:43:10.729Z,24.40
2018-06-20T08:45:39.036Z,24.50
2018-06-20T08:48:07.533Z,24.60
2018-06-20T08:50:35.854Z,24.70
2018-06-20T08:53:04.238Z,24.80
2018-06-20T08:55:32.437Z,25.00
2018-06-20T08:58:00.737Z,25.10
2018-06-20T09:00:34.377Z,25.00
2018-06-20T09:03:02.682Z,25.00
2018-06-20T09:05:36.375Z,25.10
2018-06-20T09:08:10.042Z,25.00
2018-06-20T09:10:43.709Z,25.00
2018-06-20T09:13:17.517Z,25.10
2018-06-20T09:15:51.136Z,25.00
2018-06-20T09:18:24.861Z,25.10
2018-06-20T09:20:53.176Z,25.30
2018-06-20T09:23:21.467Z,25.20
2018-06-20T09:25:49.736Z,25.00
2018-06-20T09:28:18.028Z,24.90
2018-06-20T09:30:46.329Z,25.00
2018-06-20T09:33:14.612Z,25.30
2018-06-20T09:35:42.877Z,25.50
2018-06-20T09:38:11.199Z,25.50
2018-06-20T09:40:40.173Z,25.50
2018-06-20T09:43:08.447Z,25.50
2018-06-20T09:45:36.760Z,25.60
2018-06-20T09:48:05.057Z,25.70
2018-06-20T09:50:38.801Z,25.70
2018-06-20T09:53:07.188Z,25.80
2018-06-20T09:55:35.514Z,25.90
2018-06-20T09:58:03.833Z,25.90
2018-06-20T10:00:37.654Z,25.90
2018-06-20T10:03:11.389Z,25.90
2018-06-20T10:05:45.153Z,25.40
2018-06-20T10:08:18.862Z,25.30
2018-06-20T10:10:52.592Z,25.40
2018-06-20T10:13:26.103Z,25.70
2018-06-20T10:15:54.737Z,25.50
2018-06-20T10:18:23.594Z,25.50
2018-06-20T10:20:51.890Z,25.80
2018-06-20T10:23:20.197Z,25.90
2018-06-20T10:25:48.525Z,25.90
2018-06-20T10:28:16.831Z,25.90
2018-06-20T10:30:45.110Z,25.80
2018-06-20T10:33:13.376Z,25.50
2018-06-20T10:35:41.648Z,25.30
2018-06-20T10:38:09.965Z,25.50
2018-06-20T10:43:06.331Z,25.90
2018-06-20T10:45:39.930Z,26.10
2018-06-20T10:48:13.278Z,25.90
2018-06-20T10:50:41.861Z,25.60
2018-06-20T10:53:10.189Z,25.40
2018-06-20T10:55:39.261Z,25.20
2018-06-20T11:00:47.086Z,25.30
2018-06-20T11:03:20.745Z,25.40
2018-06-20T11:05:54.497Z,25.50
2018-06-20T11:08:28.064Z,25.50
2018-06-20T11:11:01.830Z,25.60
2018-06-20T11:13:30.164Z,25.70
2018-06-20T11:15:58.453Z,25.70
2018-06-20T11:18:26.729Z,25.90
2018-06-20T11:20:59.128Z,25.80
2018-06-20T11:23:27.911Z,25.70
2018-06-20T11:25:56.273Z,25.70
2018-06-20T11:30:52.603Z,26.00
2018-06-20T11:33:21.029Z,25.90
2018-06-20T11:35:49.307Z,25.90
2018-06-20T11:38:17.625Z,26.00
2018-06-20T11:40:45.907Z,25.90
2018-06-20T11:43:14.173Z,25.90
2018-06-20T11:45:47.926Z,25.90
2018-06-20T11:48:16.297Z,26.20
2018-06-20T11:50:44.768Z,26.40
2018-06-20T11:53:13.060Z,26.30
2018-06-20T11:55:43.393Z,26.50
2018-06-20T11:58:17.044Z,26.50
2018-06-20T12:00:50.597Z,26.50
2018-06-20T12:03:24.337Z,26.40
2018-06-20T12:05:58.049Z,26.50
2018-06-20T12:08:31.880Z,26.40
2018-06-20T12:11:05.605Z,26.40
2018-06-20T12:13:39.375Z,26.60
2018-06-20T12:16:13.001Z,26.50
2018-06-20T12:18:46.729Z,26.50
2018-06-20T12:21:20.349Z,26.50
2018-06-20T12:23:53.988Z,26.40
2018-06-20T12:26:27.600Z,26.50
2018-06-20T12:29:01.236Z,26.60
2018-06-20T12:31:35.082Z,26.50
2018-06-20T12:34:08.706Z,26.30
2018-06-20T12:36:42.489Z,26.50
2018-06-20T12:39:09.942Z,26.60
2018-06-20T12:41:43.807Z,26.60
2018-06-20T12:44:17.496Z,26.70
2018-06-20T12:46:54.844Z,27.00
2018-06-20T12:49:27.917Z,26.90
2018-06-20T12:51:56.218Z,26.80
2018-06-20T12:54:24.609Z,26.90
2018-06-20T12:56:52.932Z,26.90
2018-06-20T12:59:21.253Z,27.10
2018-06-20T13:01:49.524Z,27.20
2018-06-20T13:04:17.812Z,27.30
2018-06-20T13:06:46.089Z,27.40
2018-06-20T13:09:14.389Z,27.30
2018-06-20T13:11:43.190Z,27.20
2018-06-20T13:14:12.682Z,27.40
2018-06-20T13:16:41.480Z,27.20
2018-06-20T13:19:09.778Z,27.30
2018-06-20T13:21:38.097Z,27.00
2018-06-20T13:24:07.032Z,27.00
2018-06-20T13:26:35.368Z,26.90
2018-06-20T13:29:03.634Z,27.00
2018-06-20T13:31:37.401Z,27.00
2018-06-20T13:34:11.425Z,27.00
2018-06-20T13:36:45.128Z,27.00
2018-06-20T13:39:18.916Z,27.00
2018-06-20T13:41:52.515Z,27.00
2018-06-20T13:44:22.984Z,27.00
2018-06-20T13:46:56.690Z,26.80
2018-06-20T13:49:24.989Z,27.00
2018-06-20T13:51:53.384Z,27.00
2018-06-20T13:54:21.652Z,27.20
2018-06-20T13:56:50.014Z,27.10
2018-06-20T13:59:18.344Z,27.00
2018-06-20T14:01:46.641Z,27.20
2018-06-20T14:04:15.029Z,27.40
2018-06-20T14:06:43.569Z,27.40
2018-06-20T14:09:12.517Z,27.40
2018-06-20T14:11:41.336Z,27.40
2018-06-20T14:14:09.672Z,27.30
2018-06-20T14:16:38.022Z,27.10
2018-06-20T14:19:06.264Z,27.20
2018-06-20T14:21:35.693Z,27.20
2018-06-20T14:24:04.636Z,27.40
2018-06-20T14:26:32.925Z,27.00
2018-06-20T14:29:01.269Z,27.30
2018-06-20T14:31:34.979Z,27.40
2018-06-20T14:34:08.750Z,27.60
2018-06-20T14:36:42.474Z,27.30
2018-06-20T14:39:16.165Z,27.30
2018-06-20T14:41:49.825Z,27.30
2018-06-20T14:46:46.192Z,27.20
2018-06-20T14:49:14.494Z,27.10
2018-06-20T14:51:42.840Z,27.10
2018-06-20T14:54:11.164Z,27.20
2018-06-20T14:56:39.469Z,27.20
2018-06-20T14:59:07.771Z,27.30
2018-06-20T15:01:36.168Z,27.40
2018-06-20T15:04:04.494Z,27.60
2018-06-20T15:06:32.800Z,27.60
2018-06-20T15:09:01.092Z,27.80
2018-06-20T15:11:29.400Z,27.70
2018-06-20T15:13:57.706Z,27.60
2018-06-20T15:16:31.618Z,27.70
2018-06-20T15:18:59.984Z,27.70
2018-06-20T15:21:28.309Z,27.80
2018-06-20T15:23:56.566Z,27.90
2018-06-20T15:26:30.169Z,28.10
2018-06-20T15:31:37.335Z,28.30
2018-06-20T15:35:10.363Z,28.00
2018-06-20T15:37:44.120Z,28.00
2018-06-20T15:40:12.666Z,28.10
2018-06-20T15:42:41.090Z,28.10
2018-06-20T15:45:09.441Z,28.20
2018-06-20T15:47:37.734Z,28.60
2018-06-20T15:50:06.378Z,30.00
2018-06-20T15:52:34.709Z,31.70
2018-06-20T15:55:03.049Z,32.40
2018-06-20T15:57:31.328Z,32.60
2018-06-20T15:59:59.620Z,33.10
2018-06-20T16:02:27.904Z,33.90
2018-06-20T16:04:56.190Z,34.80
2018-06-20T16:07:24.488Z,35.10
2018-06-20T16:09:54.209Z,35.80
2018-06-20T16:12:22.424Z,35.40
2018-06-20T16:14:50.926Z,36.00
2018-06-20T16:17:20.505Z,35.80
2018-06-20T16:19:54.131Z,35.60
2018-06-20T16:22:27.709Z,36.10
2018-06-20T16:25:01.317Z,36.20
2018-06-20T16:27:35.092Z,36.60
2018-06-20T16:30:08.880Z,36.90
2018-06-20T16:32:37.229Z,36.80
2018-06-20T16:35:05.657Z,36.50
2018-06-20T16:40:02.018Z,36.60
2018-06-20T16:42:30.373Z,36.10
2018-06-20T16:47:26.672Z,36.70
2018-06-20T16:49:55.010Z,36.20
2018-06-20T16:52:23.485Z,37.10
2018-06-20T16:54:51.808Z,36.70
2018-06-20T16:57:20.104Z,36.10
2018-06-20T16:59:48.462Z,36.50
2018-06-20T17:02:22.096Z,36.40
2018-06-20T17:04:50.413Z,36.90
2018-06-20T17:07:19.208Z,37.10
2018-06-20T17:09:48.395Z,37.60
2018-06-20T17:12:21.996Z,36.90
2018-06-20T17:14:55.680Z,36.40
2018-06-20T17:17:29.345Z,36.50
2018-06-20T17:20:03.081Z,36.20
2018-06-20T17:22:36.719Z,36.50
2018-06-20T17:25:10.530Z,36.70
2018-06-20T17:27:38.862Z,36.70
2018-06-20T17:30:07.311Z,36.40
2018-06-20T17:32:35.681Z,36.50
2018-06-20T17:35:04.102Z,36.60
2018-06-20T17:37:32.849Z,36.10
2018-06-20T17:40:01.170Z,36.10
2018-06-20T17:42:29.445Z,36.20
2018-06-20T17:45:03.182Z,36.70
2018-06-20T17:47:31.510Z,36.90
2018-06-20T17:49:59.784Z,36.60
2018-06-20T17:52:28.241Z,35.80
2018-06-20T17:54:56.593Z,35.60
2018-06-20T17:57:24.923Z,35.70
2018-06-20T17:59:53.280Z,35.10
2018-06-20T18:02:21.602Z,34.70
2018-06-20T18:04:55.144Z,34.70
2018-06-20T18:07:28.649Z,34.10
2018-06-20T18:10:02.293Z,33.80
2018-06-20T18:12:37.787Z,34.20
2018-06-20T18:15:12.250Z,34.40
2018-06-20T18:17:40.770Z,34.20
2018-06-20T18:20:09.062Z,34.60
2018-06-20T18:22:37.385Z,34.60
2018-06-20T18:25:05.704Z,34.00
2018-06-20T18:27:34.020Z,33.50
2018-06-20T18:30:02.398Z,33.30
2018-06-20T18:32:30.686Z,33.00
2018-06-20T18:34:58.989Z,32.90
2018-06-20T18:37:27.287Z,32.70
2018-06-20T18:40:03.756Z,31.80
2018-06-20T18:42:32.553Z,30.40
2018-06-20T18:45:00.941Z,29.40
2018-06-20T18:47:34.494Z,28.80
2018-06-20T18:50:02.808Z,28.00
2018-06-20T18:52:31.133Z,27.50
2018-06-20T18:54:59.440Z,27.10
2018-06-20T18:57:33.198Z,26.80
2018-06-20T19:00:06.801Z,26.60
2018-06-20T19:02:40.559Z,26.50
2018-06-20T19:05:14.193Z,26.20
2018-06-20T19:07:47.906Z,26.10
2018-06-20T19:10:16.214Z,25.90
2018-06-20T19:12:44.526Z,25.70
2018-06-20T19:15:12.821Z,25.60
2018-06-20T19:17:41.151Z,25.40
2018-06-20T19:20:09.535Z,25.20
2018-06-20T19:22:37.841Z,25.00
2018-06-20T19:25:06.171Z,24.80
2018-06-20T19:27:34.491Z,24.60
2018-06-20T19:30:02.800Z,24.40
2018-06-20T19:32:31.069Z,24.20
2018-06-20T19:34:59.354Z,24.00
2018-06-20T19:37:27.636Z,23.90
2018-06-20T19:39:55.964Z,23.80
2018-06-20T19:42:25.378Z,23.60
2018-06-20T19:44:53.857Z,23.50
2018-06-20T19:47:22.071Z,23.40
2018-06-20T19:49:50.355Z,23.30
2018-06-20T19:52:18.633Z,23.20
2018-06-20T19:54:46.928Z,23.20
2018-06-20T19:57:15.301Z,23.10
2018-06-20T19:59:43.545Z,23.00
2018-06-20T20:02:11.861Z,22.90
2018-06-20T20:04:40.187Z,22.80
2018-06-20T20:07:08.485Z,22.70
2018-06-20T20:09:36.760Z,22.60
2018-06-20T20:12:05.139Z,22.50
2018-06-20T20:14:33.426Z,22.40
2018-06-20T20:17:01.733Z,22.40
2018-06-20T20:19:30.018Z,22.30
2018-06-20T20:21:58.308Z,22.30
2018-06-20T20:24:26.669Z,22.10
2018-06-20T20:26:54.945Z,22.10
2018-06-20T20:29:23.223Z,22.00
2018-06-20T20:31:51.550Z,21.90
2018-06-20T20:34:19.856Z,21.80
2018-06-20T20:36:48.162Z,21.70
2018-06-20T20:39:16.449Z,21.70
2018-06-20T20:41:44.739Z,21.60
2018-06-20T20:44:13.049Z,21.60
2018-06-20T20:46:41.373Z,21.50
2018-06-20T20:49:09.656Z,21.50
2018-06-20T20:51:37.951Z,21.30
2018-06-20T20:54:06.256Z,21.30
2018-06-20T20:56:34.551Z,21.20
2018-06-20T20:59:02.913Z,21.20
2018-06-20T21:01:31.204Z,21.10
2018-06-20T21:03:59.555Z,21.10
2018-06-20T21:06:27.869Z,21.00
2018-06-20T21:08:56.155Z,21.00
2018-06-20T21:11:24.490Z,20.90
2018-06-20T21:13:52.778Z,20.90
2018-06-20T21:16:21.090Z,20.80
2018-06-20T21:18:49.411Z,20.80
2018-06-20T21:21:17.703Z,20.80
2018-06-20T21:23:45.995Z,20.80
2018-06-20T21:26:14.283Z,20.70
2018-06-20T21:28:42.599Z,20.70
2018-06-20T21:31:10.902Z,20.60
2018-06-20T21:33:39.227Z,20.50
2018-06-20T21:36:07.567Z,20.50
2018-06-20T21:38:35.861Z,20.40
2018-06-20T21:41:04.168Z,20.40
2018-06-20T21:43:32.487Z,20.30
2018-06-20T21:46:00.798Z,20.30
2018-06-20T21:48:29.168Z,20.30
2018-06-20T21:50:57.470Z,20.20
2018-06-20T21:53:25.780Z,20.20
2018-06-20T21:55:54.081Z,20.20
2018-06-20T21:58:22.403Z,20.20
2018-06-20T22:00:50.710Z,20.20
2018-06-20T22:03:19.017Z,20.10
2018-06-20T22:05:47.303Z,20.00
2018-06-20T22:08:15.607Z,19.90
2018-06-20T22:13:11.931Z,19.80
2018-06-20T22:15:40.247Z,19.80
2018-06-20T22:18:08.543Z,19.80
2018-06-20T22:20:36.873Z,19.80
2018-06-20T22:23:05.186Z,19.80
2018-06-20T22:25:33.804Z,19.70
2018-06-20T22:28:02.165Z,19.70
2018-06-20T22:30:30.484Z,19.60
2018-06-20T22:32:58.765Z,19.50
2018-06-20T22:35:27.076Z,19.40
2018-06-20T22:38:12.320Z,19.40
2018-06-20T22:40:40.701Z,19.40
2018-06-20T22:45:37.053Z,19.30
2018-06-20T22:48:05.390Z,19.30
2018-06-20T22:50:33.691Z,19.20
2018-06-20T22:53:02.094Z,19.20
2018-06-20T22:55:30.449Z,19.20
2018-06-20T22:57:58.764Z,19.20
2018-06-20T23:00:27.061Z,19.10
2018-06-20T23:02:55.365Z,19.00
2018-06-20T23:05:23.706Z,19.10
2018-06-20T23:07:52.010Z,19.00
2018-06-20T23:10:20.328Z,19.00
2018-06-20T23:12:48.664Z,18.90
2018-06-20T23:15:16.982Z,18.90
2018-06-20T23:17:45.334Z,18.90
2018-06-20T23:20:13.673Z,18.90
2018-06-20T23:22:41.986Z,18.90
2018-06-20T23:25:10.305Z,18.80
2018-06-20T23:27:38.643Z,18.80
2018-06-20T23:30:07.165Z,18.70
2018-06-20T23:32:35.483Z,18.70
2018-06-20T23:35:03.890Z,18.70
2018-06-20T23:37:32.203Z,18.70
2018-06-20T23:40:00.493Z,18.60
2018-06-20T23:42:28.806Z,18.60
2018-06-20T23:44:57.144Z,18.60
2018-06-20T23:47:25.458Z,18.50
2018-06-20T23:49:53.769Z,18.50
2018-06-20T23:52:22.117Z,18.50
2018-06-20T23:54:50.571Z,18.40
2018-06-20T23:57:18.895Z,18.40
2018-06-20T23:59:47.208Z,18.30
